Time;durP1;ratioP1;P1;durP2;ratioP2;P2;SDS_P1;SDS_P2;PMS_P1;PMS_P2;Temp;Humidity;BMP_temperature;BMP_pressure;BME280_temperature;BME280_humidity;BME280_pressure;Samples;Min_cycle;Max_cycle;Signal;HPM_P1;HPM_P2
2021/09/25 00:00:26;;;;;;;5.75;4.10;;;16.00;11.30;;;;;;4883501;29;20037;-75
2021/09/25 00:02:51;;;;;;;4.15;3.75;;;16.00;8.80;;;;;;4883152;29;20068;-75
2021/09/25 00:05:17;;;;;;;4.28;3.88;;;16.10;1.00;;;;;;4882942;29;20037;-75
2021/09/25 00:07:43;;;;;;;5.75;3.45;;;16.10;1.00;;;;;;4883338;29;20047;-75
2021/09/25 00:10:10;;;;;;;4.90;3.60;;;16.10;1.00;;;;;;4883401;29;20095;-75
2021/09/25 00:12:35;;;;;;;5.78;3.35;;;16.10;1.00;;;;;;4883168;29;20036;-75
2021/09/25 00:15:02;;;;;;;4.57;3.13;;;16.10;2.90;;;;;;4882863;29;20132;-75
2021/09/25 00:17:27;;;;;;;4.75;3.47;;;16.10;1.60;;;;;;4883060;29;20056;-75
2021/09/25 00:19:53;;;;;;;4.55;3.42;;;16.20;6.50;;;;;;4883053;29;20037;-75
2021/09/25 00:22:19;;;;;;;4.25;3.83;;;16.10;3.30;;;;;;4883033;29;20052;-75
2021/09/25 00:24:45;;;;;;;3.92;3.20;;;16.10;7.40;;;;;;4882966;29;20488;-75
2021/09/25 00:27:11;;;;;;;3.95;3.17;;;16.10;13.10;;;;;;4883086;29;20594;-75
2021/09/25 00:29:36;;;;;;;3.70;3.38;;;16.20;6.10;;;;;;4882572;29;20033;-76
2021/09/25 00:32:03;;;;;;;3.75;3.17;;;16.20;1.00;;;;;;4882418;29;20045;-75
2021/09/25 00:34:28;;;;;;;5.60;3.25;;;16.20;3.90;;;;;;4882727;29;20065;-75
2021/09/25 00:36:54;;;;;;;4.20;3.28;;;16.20;7.20;;;;;;4882752;29;20148;-75
2021/09/25 00:39:20;;;;;;;5.47;3.30;;;16.20;3.80;;;;;;4882796;29;20044;-75
2021/09/25 00:41:46;;;;;;;4.68;3.70;;;16.20;11.30;;;;;;4882683;29;20132;-75
2021/09/25 00:44:12;;;;;;;5.10;3.30;;;16.20;11.30;;;;;;4882719;29;20041;-75
2021/09/25 00:46:37;;;;;;;4.68;3.72;;;16.20;9.80;;;;;;4882182;29;20044;-76
2021/09/25 00:49:03;;;;;;;4.90;3.78;;;16.20;5.60;;;;;;4882409;29;20037;-74
2021/09/25 00:51:29;;;;;;;4.55;3.35;;;16.20;3.30;;;;;;4882236;29;20049;-75
2021/09/25 00:53:56;;;;;;;5.88;4.22;;;16.20;6.00;;;;;;4882507;29;20489;-75
2021/09/25 00:56:24;;;;;;;3.80;3.50;;;16.10;1.80;;;;;;4882313;29;20050;-74
2021/09/25 00:58:50;;;;;;;3.70;3.40;;;16.20;1.10;;;;;;4882230;29;20040;-75
2021/09/25 01:01:17;;;;;;;5.35;4.00;;;16.20;7.70;;;;;;4882326;29;20516;-75
2021/09/25 01:03:42;;;;;;;5.82;3.97;;;16.20;5.00;;;;;;4882327;29;20100;-75
2021/09/25 01:06:08;;;;;;;5.10;3.38;;;16.10;9.40;;;;;;4882251;29;20045;-75
2021/09/25 01:08:34;;;;;;;4.93;3.38;;;16.10;10.10;;;;;;4882248;29;20064;-75
2021/09/25 01:11:00;;;;;;;5.90;3.63;;;16.20;5.80;;;;;;4881640;29;20033;-75
2021/09/25 01:13:26;;;;;;;4.80;3.70;;;16.10;6.90;;;;;;4881585;29;20056;-75
2021/09/25 01:15:52;;;;;;;6.80;3.53;;;16.10;9.20;;;;;;4881314;29;20048;-75
2021/09/25 01:18:19;;;;;;;5.75;3.95;;;16.20;7.60;;;;;;4881782;29;20044;-75
2021/09/25 01:20:45;;;;;;;3.83;3.50;;;16.20;10.00;;;;;;4881638;29;20037;-76
2021/09/25 01:23:11;;;;;;;5.53;3.30;;;16.20;14.10;;;;;;4881728;29;20077;-75
2021/09/25 01:25:37;;;;;;;4.20;3.80;;;16.20;9.40;;;;;;4881984;29;20041;-75
2021/09/25 01:28:03;;;;;;;4.28;3.80;;;16.20;1.90;;;;;;4881601;29;20041;-75
2021/09/25 01:30:29;;;;;;;6.32;3.65;;;16.20;1.00;;;;;;4881335;29;20065;-75
2021/09/25 01:32:56;;;;;;;3.92;3.60;;;16.20;6.20;;;;;;4881342;29;20095;-75
2021/09/25 01:35:23;;;;;;;3.92;3.33;;;16.20;5.20;;;;;;4881965;29;20044;-75
2021/09/25 01:37:52;;;;;;;3.90;3.53;;;16.20;5.40;;;;;;4881247;29;20088;-75
2021/09/25 01:40:18;;;;;;;4.15;3.30;;;16.20;1.90;;;;;;4881112;29;20041;-76
2021/09/25 01:42:44;;;;;;;5.70;3.22;;;16.30;1.00;;;;;;4881353;29;20069;-75
2021/09/25 01:45:11;;;;;;;3.47;3.17;;;16.20;1.00;;;;;;4881399;29;20120;-75
2021/09/25 01:47:40;;;;;;;3.70;3.35;;;16.20;3.20;;;;;;4881118;29;20494;-75
2021/09/25 01:50:10;;;;;;;3.97;3.45;;;16.10;1.00;;;;;;4880944;29;20509;-75
2021/09/25 01:52:36;;;;;;;3.90;3.50;;;16.10;1.00;;;;;;4881167;29;20041;-75
2021/09/25 01:55:03;;;;;;;7.05;3.60;;;16.10;1.00;;;;;;4881152;29;20049;-75
2021/09/25 01:57:29;;;;;;;7.05;3.70;;;16.10;1.00;;;;;;4881263;29;20045;-75
2021/09/25 01:59:55;;;;;;;5.60;3.30;;;16.10;1.00;;;;;;4881093;29;20052;-75
2021/09/25 02:02:21;;;;;;;4.15;3.60;;;16.20;3.70;;;;;;4880887;29;20056;-76
2021/09/25 02:04:47;;;;;;;5.35;3.63;;;16.20;2.50;;;;;;4881078;29;20072;-75
2021/09/25 02:07:15;;;;;;;3.88;3.50;;;16.20;1.00;;;;;;4880974;29;20052;-75
2021/09/25 02:09:41;;;;;;;4.03;3.63;;;16.20;3.90;;;;;;4880468;29;20053;-75
2021/09/25 02:12:07;;;;;;;4.30;3.58;;;16.30;5.70;;;;;;4880335;29;20040;-75
2021/09/25 02:14:33;;;;;;;3.88;3.38;;;16.30;4.50;;;;;;4880622;29;20056;-75
2021/09/25 02:16:59;;;;;;;3.92;3.53;;;16.20;5.40;;;;;;4880754;29;20412;-75
2021/09/25 02:19:25;;;;;;;3.92;3.08;;;16.20;2.90;;;;;;4880935;29;20071;-75
2021/09/25 02:21:51;;;;;;;3.58;3.28;;;16.20;2.00;;;;;;4880549;29;20049;-75
2021/09/25 02:24:17;;;;;;;5.75;3.15;;;16.30;3.70;;;;;;4880538;29;20048;-76
2021/09/25 02:26:43;;;;;;;3.80;3.30;;;16.30;4.20;;;;;;4880784;29;20053;-75
2021/09/25 02:29:09;;;;;;;3.90;3.50;;;16.20;1.00;;;;;;4880899;29;20088;-75
2021/09/25 02:31:35;;;;;;;3.25;2.95;;;16.20;1.00;;;;;;4880705;29;20513;-76
2021/09/25 02:34:01;;;;;;;3.63;3.08;;;16.20;6.00;;;;;;4880960;29;20053;-75
2021/09/25 02:36:27;;;;;;;4.40;3.22;;;16.30;1.00;;;;;;4880591;29;20593;-75
2021/09/25 02:38:53;;;;;;;3.83;3.08;;;16.30;1.00;;;;;;4880849;29;20076;-75
2021/09/25 02:41:19;;;;;;;4.60;3.45;;;16.40;1.00;;;;;;4880905;29;20040;-75
2021/09/25 02:43:45;;;;;;;3.70;3.38;;;16.40;1.00;;;;;;4880333;29;20041;-75
2021/09/25 02:46:10;;;;;;;4.13;2.90;;;16.40;1.00;;;;;;4880373;29;20081;-75
2021/09/25 02:48:36;;;;;;;4.97;4.07;;;16.40;1.00;;;;;;4880730;29;20087;-75
2021/09/25 02:51:03;;;;;;;4.20;3.60;;;16.40;1.00;;;;;;4880553;29;20506;-75
2021/09/25 02:53:29;;;;;;;5.05;3.72;;;16.40;1.00;;;;;;4880528;29;20053;-75
2021/09/25 02:55:55;;;;;;;3.58;3.13;;;16.40;1.00;;;;;;4880457;29;20568;-75
2021/09/25 02:58:21;;;;;;;5.85;3.40;;;16.40;1.00;;;;;;4880571;29;20048;-75
2021/09/25 03:00:46;;;;;;;3.65;3.33;;;16.30;1.50;;;;;;4880047;29;20108;-75
2021/09/25 03:03:12;;;;;;;5.80;3.20;;;16.30;1.00;;;;;;4880456;29;20044;-75
2021/09/25 03:05:38;;;;;;;4.00;3.60;;;16.40;1.00;;;;;;4880105;29;20033;-75
2021/09/25 03:08:04;;;;;;;5.20;3.35;;;16.30;1.00;;;;;;4880206;29;20059;-76
2021/09/25 03:10:30;;;;;;;5.10;3.58;;;16.30;1.00;;;;;;4880997;29;20105;-75
2021/09/25 03:12:56;;;;;;;3.25;2.90;;;16.40;1.00;;;;;;4880627;29;20041;-75
2021/09/25 03:15:22;;;;;;;4.88;3.15;;;16.40;1.00;;;;;;4880466;29;20040;-75
2021/09/25 03:17:48;;;;;;;4.63;3.10;;;16.60;1.00;;;;;;4880118;29;20041;-75
2021/09/25 03:20:14;;;;;;;4.30;3.00;;;16.60;1.00;;;;;;4880888;29;20076;-74
2021/09/25 03:22:40;;;;;;;5.22;3.33;;;16.50;1.00;;;;;;4882443;29;20049;-75
2021/09/25 03:25:09;;;;;;;4.18;3.33;;;16.50;1.00;;;;;;4884081;29;20124;-75
2021/09/25 03:27:37;;;;;;;4.47;3.00;;;16.50;1.00;;;;;;4883898;29;20400;-75
2021/09/25 03:30:05;;;;;;;4.13;3.08;;;16.40;1.00;;;;;;4883832;29;20088;-75
2021/09/25 03:32:31;;;;;;;3.80;3.20;;;16.50;1.00;;;;;;4883826;29;20047;-75
2021/09/25 03:34:57;;;;;;;4.78;3.20;;;16.50;1.00;;;;;;4867116;29;20037;-75
2021/09/25 03:37:22;;;;;;;3.65;3.17;;;16.60;1.00;;;;;;4884058;29;20045;-75
2021/09/25 03:39:48;;;;;;;4.53;3.35;;;16.60;1.00;;;;;;4883548;29;20040;-75
2021/09/25 03:42:14;;;;;;;4.05;3.40;;;16.70;1.00;;;;;;4883509;29;20048;-75
2021/09/25 03:44:40;;;;;;;5.18;3.22;;;16.70;1.00;;;;;;4883471;29;20083;-75
2021/09/25 03:47:06;;;;;;;4.03;2.83;;;16.80;1.00;;;;;;4883609;29;20060;-75
2021/09/25 03:49:32;;;;;;;4.97;3.08;;;16.80;1.00;;;;;;4883398;29;20033;-75
2021/09/25 03:51:58;;;;;;;5.22;3.10;;;16.80;1.00;;;;;;4883598;29;20049;-75
2021/09/25 03:54:23;;;;;;;3.22;2.92;;;16.80;1.00;;;;;;4883796;29;20041;-75
2021/09/25 03:56:49;;;;;;;4.47;2.80;;;16.80;1.00;;;;;;4883123;29;20531;-75
2021/09/25 03:59:15;;;;;;;3.45;3.13;;;16.80;1.00;;;;;;4883473;29;20052;-75
2021/09/25 04:01:41;;;;;;;3.03;2.58;;;16.70;1.00;;;;;;4883472;29;20073;-75
2021/09/25 04:04:07;;;;;;;4.50;3.10;;;16.80;1.00;;;;;;4883398;29;20033;-75
2021/09/25 04:06:33;;;;;;;6.43;3.13;;;16.80;1.00;;;;;;4883321;29;20101;-75
2021/09/25 04:08:59;;;;;;;2.53;2.33;;;16.90;1.00;;;;;;4883383;29;20085;-75
2021/09/25 04:11:25;;;;;;;6.45;3.25;;;17.00;1.00;;;;;;4882899;29;20069;-75
2021/09/25 04:13:51;;;;;;;3.22;2.92;;;17.00;1.00;;;;;;4882653;29;20501;-75
2021/09/25 04:16:17;;;;;;;4.25;2.90;;;17.00;1.00;;;;;;4882666;29;20048;-76
2021/09/25 04:18:44;;;;;;;3.45;2.95;;;17.00;1.00;;;;;;4883169;29;20548;-75
2021/09/25 04:21:10;;;;;;;5.07;2.83;;;17.00;1.00;;;;;;4882756;29;20044;-75
2021/09/25 04:23:36;;;;;;;5.43;3.40;;;17.00;1.00;;;;;;4882658;29;20037;-75
2021/09/25 04:26:03;;;;;;;3.33;3.03;;;17.00;1.00;;;;;;4882726;29;20040;-75
2021/09/25 04:28:28;;;;;;;5.70;3.63;;;16.90;1.00;;;;;;4882737;29;20041;-75
2021/09/25 04:30:54;;;;;;;3.15;2.83;;;17.00;1.00;;;;;;4882516;29;20044;-75
2021/09/25 04:33:20;;;;;;;5.35;3.13;;;17.10;1.00;;;;;;4881740;29;20089;-75
2021/09/25 04:35:46;;;;;;;3.40;2.70;;;17.10;1.00;;;;;;4883095;29;20060;-75
2021/09/25 04:38:11;;;;;;;4.53;3.05;;;17.20;1.00;;;;;;4882522;29;20049;-75
2021/09/25 04:40:37;;;;;;;4.53;3.13;;;17.30;1.00;;;;;;4883010;29;20041;-75
2021/09/25 04:43:03;;;;;;;4.10;3.47;;;17.30;1.00;;;;;;4882342;29;20063;-75
2021/09/25 04:45:30;;;;;;;5.32;3.92;;;17.30;1.00;;;;;;4882199;29;20037;-75
2021/09/25 04:47:56;;;;;;;3.67;3.38;;;17.30;1.00;;;;;;4882181;29;20048;-75
2021/09/25 04:50:24;;;;;;;4.30;3.47;;;17.30;1.00;;;;;;4882300;29;20367;-75
2021/09/25 04:52:50;;;;;;;3.65;3.08;;;17.30;1.00;;;;;;4882162;29;20093;-75
2021/09/25 04:55:16;;;;;;;4.32;3.78;;;17.30;1.00;;;;;;4882218;29;20442;-75
2021/09/25 04:57:41;;;;;;;5.15;3.20;;;17.40;1.00;;;;;;4882010;29;20101;-75
2021/09/25 05:00:08;;;;;;;5.20;3.80;;;17.40;1.00;;;;;;4881945;29;20041;-75
2021/09/25 05:02:34;;;;;;;3.80;3.28;;;17.40;1.00;;;;;;4882069;29;20049;-75
2021/09/25 05:05:00;;;;;;;3.92;3.47;;;17.30;1.00;;;;;;4881871;29;20044;-75
2021/09/25 05:07:26;;;;;;;3.47;3.17;;;17.30;1.00;;;;;;4882104;29;20048;-75
2021/09/25 05:09:51;;;;;;;5.10;3.50;;;17.40;1.00;;;;;;4881479;29;20057;-75
2021/09/25 05:12:17;;;;;;;3.67;3.25;;;17.40;1.00;;;;;;4882319;29;20045;-75
2021/09/25 05:14:43;;;;;;;6.97;3.70;;;17.40;1.00;;;;;;4882135;29;20052;-75
2021/09/25 05:17:09;;;;;;;7.18;3.75;;;17.40;1.00;;;;;;4881998;29;20056;-75
2021/09/25 05:19:35;;;;;;;5.85;3.75;;;17.40;1.00;;;;;;4881851;29;20434;-75
2021/09/25 05:22:01;;;;;;;4.95;3.40;;;17.40;1.00;;;;;;4881988;29;20045;-76
2021/09/25 05:24:27;;;;;;;3.92;3.47;;;17.40;1.00;;;;;;4881662;29;20040;-75
2021/09/25 05:26:55;;;;;;;3.90;3.60;;;17.40;1.00;;;;;;4881882;29;20052;-75
2021/09/25 05:29:21;;;;;;;6.57;4.15;;;17.40;1.00;;;;;;4881300;29;20040;-75
2021/09/25 05:31:47;;;;;;;4.93;4.25;;;17.40;1.00;;;;;;4881793;29;20089;-75
2021/09/25 05:34:13;;;;;;;5.25;3.67;;;17.40;1.70;;;;;;4882067;29;20430;-75
2021/09/25 05:36:39;;;;;;;6.00;4.30;;;17.40;3.40;;;;;;4881673;29;20045;-75
2021/09/25 05:39:06;;;;;;;4.82;4.13;;;17.40;2.40;;;;;;4882311;29;20052;-75
2021/09/25 05:41:32;;;;;;;4.57;4.18;;;17.40;2.10;;;;;;4881641;29;20043;-75
2021/09/25 05:43:58;;;;;;;10.10;5.47;;;17.40;10.70;;;;;;4881655;29;20040;-75
2021/09/25 05:46:24;;;;;;;7.43;4.60;;;17.40;29.00;;;;;;4881019;29;20400;-74
2021/09/25 05:48:52;;;;;;;6.43;4.82;;;17.40;27.80;;;;;;4881332;29;20393;-75
2021/09/25 05:51:19;;;;;;;7.07;5.10;;;17.40;33.70;;;;;;4881415;29;20089;-74
2021/09/25 05:53:45;;;;;;;7.35;5.03;;;17.40;51.60;;;;;;4881205;29;20076;-75
2021/09/25 05:56:12;;;;;;;6.75;5.55;;;17.30;63.20;;;;;;4881120;29;20045;-74
2021/09/25 05:58:37;;;;;;;5.25;4.82;;;17.30;72.20;;;;;;4881201;29;20528;-74
2021/09/25 06:01:03;;;;;;;6.75;5.03;;;17.30;67.60;;;;;;4881254;29;20045;-75
2021/09/25 06:03:29;;;;;;;6.20;5.07;;;17.20;61.30;;;;;;4881077;29;20048;-75
2021/09/25 06:05:55;;;;;;;5.93;5.30;;;17.20;86.20;;;;;;4881604;29;20517;-74
2021/09/25 06:08:21;;;;;;;9.45;5.43;;;17.20;97.50;;;;;;4880958;29;20064;-75
2021/09/25 06:10:46;;;;;;;9.30;6.30;;;17.00;99.90;;;;;;4880975;29;20065;-75
2021/09/25 06:13:12;;;;;;;7.47;6.35;;;17.00;99.90;;;;;;4880638;29;20530;-75
2021/09/25 06:15:39;;;;;;;6.88;6.18;;;16.90;99.90;;;;;;4880847;29;20461;-75
2021/09/25 06:18:05;;;;;;;6.95;6.35;;;17.00;99.90;;;;;;4880866;29;20088;-75
2021/09/25 06:20:31;;;;;;;7.25;6.53;;;16.90;99.90;;;;;;4880828;29;20048;-75
2021/09/25 06:22:57;;;;;;;7.65;6.65;;;17.00;99.90;;;;;;4880415;29;20461;-78
2021/09/25 06:25:23;;;;;;;9.45;7.18;;;17.00;99.90;;;;;;4880799;29;20041;-75
2021/09/25 06:27:49;;;;;;;8.00;7.30;;;17.00;99.90;;;;;;4880525;29;20489;-75
2021/09/25 06:30:15;;;;;;;11.20;7.28;;;17.10;99.90;;;;;;4880595;29;20045;-75
2021/09/25 06:32:41;;;;;;;8.95;8.15;;;17.10;99.90;;;;;;4880707;29;20396;-75
2021/09/25 06:35:10;;;;;;;9.13;8.30;;;17.20;99.90;;;;;;4880685;29;20096;-75
2021/09/25 06:37:36;;;;;;;9.70;8.40;;;17.10;99.90;;;;;;4880263;29;20056;-74
2021/09/25 06:40:03;;;;;;;9.55;7.95;;;17.10;99.90;;;;;;4879751;29;20045;-75
2021/09/25 06:42:29;;;;;;;8.90;8.10;;;17.10;99.90;;;;;;4878968;29;20045;-76
2021/09/25 06:44:55;;;;;;;8.63;7.82;;;17.20;99.90;;;;;;4878543;29;20092;-75
2021/09/25 06:47:21;;;;;;;8.68;7.95;;;17.10;99.90;;;;;;4878751;29;20049;-75
2021/09/25 06:49:47;;;;;;;11.93;9.07;;;17.20;99.90;;;;;;4879322;29;20041;-75
2021/09/25 06:52:13;;;;;;;9.93;8.75;;;17.20;99.90;;;;;;4880339;29;20051;-75
2021/09/25 06:54:39;;;;;;;9.23;8.40;;;17.20;99.90;;;;;;4880422;29;20033;-74
2021/09/25 06:57:10;;;;;;;9.52;8.73;;;17.20;99.90;;;;;;4881022;29;20127;-75
2021/09/25 06:59:36;;;;;;;9.88;8.77;;;17.20;99.90;;;;;;4883384;29;20505;-75
2021/09/25 07:02:02;;;;;;;10.82;9.38;;;17.20;99.90;;;;;;4883572;29;20072;-75
2021/09/25 07:04:28;;;;;;;10.38;9.20;;;17.20;99.90;;;;;;4883527;29;20098;-75
2021/09/25 07:06:54;;;;;;;10.18;9.10;;;17.20;99.90;;;;;;4884021;29;20057;-74
2021/09/25 07:09:20;;;;;;;10.88;9.93;;;17.20;99.90;;;;;;4884599;29;20061;-75
2021/09/25 07:11:45;;;;;;;10.15;9.30;;;17.20;99.90;;;;;;4892341;29;20047;-76
2021/09/25 07:14:11;;;;;;;9.90;9.02;;;17.20;99.90;;;;;;4893455;29;20516;-75
2021/09/25 07:16:37;;;;;;;11.98;9.18;;;17.20;99.90;;;;;;4891404;29;20041;-75
2021/09/25 07:19:06;;;;;;;10.30;9.40;;;17.20;99.90;;;;;;4892661;29;20068;-75
2021/09/25 07:21:32;;;;;;;10.95;9.82;;;17.20;99.90;;;;;;4900128;29;20520;-75
2021/09/25 07:23:58;;;;;;;22.75;14.73;;;17.20;99.90;;;;;;4890015;29;20055;-75
2021/09/25 07:26:24;;;;;;;10.27;9.25;;;17.20;99.90;;;;;;4892542;29;20043;-74
2021/09/25 07:28:50;;;;;;;10.65;9.63;;;17.30;99.90;;;;;;4887491;29;20051;-75
2021/09/25 07:31:16;;;;;;;10.18;9.23;;;17.30;99.90;;;;;;4883441;29;20045;-75
2021/09/25 07:33:42;;;;;;;10.38;9.38;;;17.30;99.90;;;;;;4883412;29;20161;-77
2021/09/25 07:36:09;;;;;;;11.25;9.27;;;17.20;99.90;;;;;;4886045;29;20128;-78
2021/09/25 07:38:35;;;;;;;10.10;9.20;;;17.20;99.90;;;;;;4891461;29;20084;-78
2021/09/25 07:41:01;;;;;;;9.85;8.98;;;17.30;99.90;;;;;;4890484;29;20527;-77
2021/09/25 07:43:27;;;;;;;9.82;8.93;;;17.30;99.90;;;;;;4889993;29;20040;-78
2021/09/25 07:45:55;;;;;;;9.55;8.65;;;17.30;99.90;;;;;;4891792;29;20055;-78
2021/09/25 07:48:21;;;;;;;10.80;9.75;;;17.30;99.90;;;;;;4891036;29;20052;-78
2021/09/25 07:50:47;;;;;;;11.35;9.30;;;17.40;99.90;;;;;;4895699;29;20036;-79
2021/09/25 07:53:13;;;;;;;9.77;8.88;;;17.40;99.90;;;;;;4901999;29;20032;-78
2021/09/25 07:55:39;;;;;;;9.93;8.98;;;17.50;99.90;;;;;;4905808;29;20044;-78
2021/09/25 07:58:05;;;;;;;9.73;8.98;;;17.50;99.90;;;;;;4901736;29;20048;-78
2021/09/25 08:00:31;;;;;;;9.98;9.00;;;17.50;99.90;;;;;;4901437;29;20563;-79
2021/09/25 08:02:56;;;;;;;10.45;9.35;;;17.50;99.90;;;;;;4901657;29;20575;-80
2021/09/25 08:05:22;;;;;;;10.60;9.13;;;17.50;99.90;;;;;;4901498;29;20087;-79
2021/09/25 08:07:48;;;;;;;10.63;9.48;;;17.50;99.90;;;;;;4901145;29;20048;-80
2021/09/25 08:10:15;;;;;;;10.27;9.40;;;17.50;99.90;;;;;;4898289;29;20040;-79
2021/09/25 08:12:42;;;;;;;10.50;9.32;;;17.60;99.90;;;;;;4888109;29;20053;-79
2021/09/25 08:15:10;;;;;;;9.73;8.82;;;17.60;99.90;;;;;;4880518;29;20493;-79
2021/09/25 08:17:37;;;;;;;10.10;9.10;;;17.70;99.90;;;;;;4887990;29;20500;-78
2021/09/25 08:20:06;;;;;;;10.07;9.15;;;17.70;99.90;;;;;;4876024;29;20497;-79
2021/09/25 08:22:32;;;;;;;10.75;9.10;;;17.70;99.90;;;;;;4887151;29;20398;-78
2021/09/25 08:24:59;;;;;;;10.32;8.45;;;17.80;99.90;;;;;;4875335;29;20033;-78
2021/09/25 08:27:24;;;;;;;9.60;8.68;;;17.80;99.90;;;;;;4882311;29;20041;-79
2021/09/25 08:29:52;;;;;;;11.88;8.77;;;17.90;99.90;;;;;;4890107;29;20101;-79
2021/09/25 08:32:18;;;;;;;9.82;8.93;;;18.00;99.90;;;;;;4879162;29;20072;-79
2021/09/25 08:34:44;;;;;;;10.13;8.93;;;18.00;99.90;;;;;;4880197;29;20068;-77
2021/09/25 08:37:11;;;;;;;9.05;8.15;;;18.00;99.90;;;;;;4879305;29;20466;-78
2021/09/25 08:39:37;;;;;;;10.50;8.15;;;18.00;99.90;;;;;;4873609;29;20044;-77
2021/09/25 08:42:03;;;;;;;9.57;8.68;;;18.10;99.90;;;;;;4891652;29;20103;-80
2021/09/25 08:44:31;;;;;;;9.20;8.40;;;18.10;99.90;;;;;;4880236;29;20037;-79
2021/09/25 08:46:57;;;;;;;9.45;8.43;;;18.10;99.90;;;;;;4895988;29;20135;-79
2021/09/25 08:49:23;;;;;;;9.30;8.50;;;18.10;99.90;;;;;;4888194;29;20098;-79
2021/09/25 08:51:49;;;;;;;9.45;8.55;;;18.10;99.90;;;;;;4879865;29;20036;-79
2021/09/25 08:54:15;;;;;;;9.75;8.75;;;18.10;99.90;;;;;;4879945;29;20536;-80
2021/09/25 08:56:41;;;;;;;10.82;9.60;;;18.10;99.90;;;;;;4864196;29;20057;-81
2021/09/25 08:59:07;;;;;;;12.38;10.18;;;18.00;99.90;;;;;;4881962;29;20041;-78
2021/09/25 09:01:34;;;;;;;12.40;11.10;;;18.00;99.90;;;;;;4879689;29;20048;-78
2021/09/25 09:04:00;;;;;;;12.63;11.35;;;17.90;99.90;;;;;;4885858;29;20115;-75
2021/09/25 09:06:36;;;;;;;13.10;11.88;;;17.90;99.90;;;;;;4896243;29;20100;-76
2021/09/25 09:09:10;;;;;;;14.85;13.20;;;17.90;99.90;;;;;;4895400;29;20067;-78
2021/09/25 09:11:44;;;;;;;18.60;13.18;;;17.90;99.90;;;;;;4899314;29;20449;-78
2021/09/25 09:14:14;;;;;;;14.20;12.75;;;17.90;99.90;;;;;;4899973;29;20055;-78
2021/09/25 09:16:41;;;;;;;15.55;13.15;;;18.00;99.90;;;;;;4899679;29;20131;-76
2021/09/25 09:19:07;;;;;;;15.75;13.95;;;18.00;99.90;;;;;;4899947;29;20109;-74
2021/09/25 09:21:33;;;;;;;13.45;12.13;;;18.10;99.90;;;;;;4898941;29;20119;-75
2021/09/25 09:24:00;;;;;;;16.20;12.73;;;18.00;99.90;;;;;;4900223;29;20044;-76
2021/09/25 09:26:39;;;;;;;14.18;12.63;;;18.00;99.90;;;;;;4899243;29;20032;-75
2021/09/25 09:29:08;;;;;;;17.88;12.40;;;18.10;99.90;;;;;;4899892;29;20053;-76
2021/09/25 09:31:35;;;;;;;13.85;11.88;;;18.10;99.90;;;;;;4889761;29;20087;-75
2021/09/25 09:34:04;;;;;;;13.35;11.95;;;18.10;99.90;;;;;;4894350;29;20072;-75
2021/09/25 09:36:35;;;;;;;12.38;11.07;;;18.10;99.90;;;;;;4899480;29;20051;-74
2021/09/25 09:39:19;;;;;;;12.45;10.95;;;18.10;99.90;;;;;;4901394;29;20089;-74
2021/09/25 09:41:54;;;;;;;13.13;11.13;;;18.20;99.90;;;;;;4899964;29;20044;-76
2021/09/25 09:44:26;;;;;;;12.20;10.85;;;18.20;99.90;;;;;;4899161;29;20188;-74
2021/09/25 09:47:03;;;;;;;14.30;11.82;;;18.20;99.90;;;;;;4899727;29;20525;-75
2021/09/25 09:49:38;;;;;;;12.93;10.80;;;18.20;99.90;;;;;;4900097;29;20040;-75
2021/09/25 09:52:03;;;;;;;14.65;10.68;;;18.30;99.90;;;;;;4900035;29;20041;-75
2021/09/25 09:54:38;;;;;;;13.63;11.10;;;18.30;99.90;;;;;;4899511;29;20047;-75
2021/09/25 09:57:09;;;;;;;11.57;10.40;;;18.40;99.90;;;;;;4893274;29;20047;-76
2021/09/25 09:59:36;;;;;;;11.95;10.32;;;18.40;99.90;;;;;;4889028;29;20056;-75
2021/09/25 10:02:05;;;;;;;13.95;10.50;;;18.40;99.90;;;;;;4887306;29;20116;-75
2021/09/25 10:04:31;;;;;;;16.77;11.00;;;18.40;99.90;;;;;;4888887;29;20139;-73
2021/09/25 10:06:57;;;;;;;16.27;12.88;;;18.40;99.90;;;;;;4893267;29;20052;-73
2021/09/25 10:09:27;;;;;;;23.30;12.85;;;18.50;99.90;;;;;;4886695;29;20481;-72
2021/09/25 10:11:55;;;;;;;17.92;13.82;;;18.60;99.90;;;;;;4879402;29;20079;-69
2021/09/25 10:14:24;;;;;;;16.10;14.00;;;18.40;99.90;;;;;;4879687;29;20116;-70
2021/09/25 10:16:51;;;;;;;22.90;15.18;;;18.40;1.00;;;;;;4878944;29;20131;-69
2021/09/25 10:19:19;;;;;;;23.75;16.90;;;18.50;1.00;;;;;;4881246;29;20045;-69
2021/09/25 10:21:47;;;;;;;17.48;15.70;;;18.50;94.70;;;;;;4881059;29;20049;-69
2021/09/25 10:24:24;;;;;;;22.85;17.52;;;18.40;99.90;;;;;;4881100;29;20128;-69
2021/09/25 10:26:50;;;;;;;22.17;18.08;;;18.40;99.90;;;;;;4881098;29;20044;-70
2021/09/25 10:29:19;;;;;;;18.95;16.92;;;18.40;99.90;;;;;;4881142;29;20081;-70
2021/09/25 10:31:45;;;;;;;21.70;17.10;;;18.40;99.90;;;;;;4884838;29;20044;-70
2021/09/25 10:34:27;;;;;;;23.60;17.50;;;18.40;99.90;;;;;;4899550;29;20040;-71
2021/09/25 10:36:56;;;;;;;24.02;17.60;;;18.40;99.90;;;;;;4898008;29;20040;-70
2021/09/25 10:39:35;;;;;;;22.00;18.70;;;18.40;99.90;;;;;;4897570;29;20060;-70
2021/09/25 10:42:15;;;;;;;25.40;17.88;;;18.40;99.90;;;;;;4899535;29;20064;-70
2021/09/25 10:45:00;;;;;;;20.15;16.65;;;18.40;99.90;;;;;;4899888;29;20040;-70
2021/09/25 10:47:34;;;;;;;24.15;18.08;;;18.50;99.90;;;;;;4899211;29;20170;-70
2021/09/25 10:50:00;;;;;;;23.63;18.58;;;18.50;99.90;;;;;;4897322;29;20048;-71
2021/09/25 10:53:05;;;;;;;23.70;19.48;;;18.60;99.90;;;;;;4897907;29;20044;-70
2021/09/25 10:55:31;;;;;;;26.45;19.85;;;18.70;99.90;;;;;;4899208;29;20552;-70
2021/09/25 10:58:12;;;;;;;23.15;17.90;;;18.70;99.90;;;;;;4899598;29;20048;-71
2021/09/25 11:00:47;;;;;;;;;;;18.70;99.90;;;;;;4899471;29;20037;-71
2021/09/25 11:06:26;;;;;;;19.70;17.52;;;18.70;99.90;;;;;;4899612;29;20358;-70
2021/09/25 11:09:02;;;;;;;24.77;18.00;;;18.70;99.90;;;;;;4899381;29;20112;-71
2021/09/25 11:11:36;;;;;;;23.52;19.75;;;18.60;99.90;;;;;;4899120;29;20513;-71
2021/09/25 11:14:05;;;;;;;24.40;20.13;;;18.60;99.90;;;;;;4898786;29;20032;-70
2021/09/25 11:17:00;;;;;;;22.55;18.58;;;18.60;99.90;;;;;;4898882;29;20141;-70
2021/09/25 11:19:26;;;;;;;25.33;18.42;;;18.70;99.90;;;;;;4899776;29;20048;-70
2021/09/25 11:21:59;;;;;;;21.90;19.15;;;18.60;99.90;;;;;;4898873;29;20405;-70
2021/09/25 11:24:25;;;;;;;18.38;16.58;;;18.60;99.90;;;;;;4898650;29;20051;-70
2021/09/25 11:26:51;;;;;;;19.95;17.58;;;18.60;99.90;;;;;;4898916;29;20051;-71
2021/09/25 11:29:17;;;;;;;21.15;17.20;;;18.70;99.90;;;;;;4899542;29;20049;-71
2021/09/25 11:31:48;;;;;;;21.98;18.38;;;18.70;99.90;;;;;;4898808;29;20092;-71
2021/09/25 11:34:25;;;;;;;21.90;16.80;;;18.70;99.90;;;;;;4898937;29;20083;-71
2021/09/25 11:36:53;;;;;;;21.95;15.65;;;18.70;99.90;;;;;;4898754;29;20048;-71
2021/09/25 11:39:41;;;;;;;18.60;16.15;;;18.80;99.90;;;;;;4899186;29;20131;-71
2021/09/25 11:42:15;;;;;;;22.23;17.02;;;18.80;99.90;;;;;;4898763;29;20040;-71
2021/09/25 11:44:42;;;;;;;17.80;15.93;;;18.80;99.90;;;;;;4902788;29;20044;-71
2021/09/25 11:47:08;;;;;;;22.05;17.13;;;18.80;99.90;;;;;;4904918;29;20041;-72
2021/09/25 11:49:37;;;;;;;17.02;14.75;;;18.80;99.90;;;;;;4902912;29;20052;-71
2021/09/25 11:52:03;;;;;;;21.15;14.65;;;18.80;99.90;;;;;;4903106;29;20040;-72
2021/09/25 11:54:29;;;;;;;19.27;16.48;;;18.80;99.90;;;;;;4902151;29;20067;-71
2021/09/25 11:56:55;;;;;;;21.13;16.33;;;18.90;99.90;;;;;;4901919;29;20040;-72
2021/09/25 11:59:21;;;;;;;17.33;14.63;;;19.00;99.90;;;;;;4902593;29;20084;-72
2021/09/25 12:01:48;;;;;;;12.82;11.55;;;19.00;99.90;;;;;;4901638;29;20579;-72
2021/09/25 12:04:16;;;;;;;14.85;13.27;;;18.90;99.90;;;;;;4897299;29;20071;-72
2021/09/25 12:06:53;;;;;;;23.60;16.45;;;19.00;99.90;;;;;;4881523;29;20188;-72
2021/09/25 12:09:39;;;;;;;19.92;16.80;;;19.10;99.90;;;;;;4882169;29;20061;-72
2021/09/25 12:12:05;;;;;;;24.45;16.20;;;19.10;99.90;;;;;;4882193;29;20068;-72
2021/09/25 12:14:42;;;;;;;20.98;14.23;;;19.20;99.90;;;;;;4882841;29;20464;-73
2021/09/25 12:17:08;;;;;;;16.73;14.80;;;19.40;99.90;;;;;;4882989;29;20049;-72
2021/09/25 12:19:33;;;;;;;16.48;13.88;;;19.40;99.90;;;;;;4883104;29;20041;-72
2021/09/25 12:21:59;;;;;;;17.20;12.40;;;19.40;99.90;;;;;;4883117;29;20493;-72
2021/09/25 12:24:25;;;;;;;15.15;13.60;;;19.40;99.90;;;;;;4882827;29;20077;-72
2021/09/25 12:26:55;;;;;;;20.27;14.93;;;19.40;99.90;;;;;;4882967;29;20470;-70
2021/09/25 12:29:21;;;;;;;19.77;15.43;;;19.40;99.90;;;;;;4882707;29;20040;-70
2021/09/25 12:32:01;;;;;;;19.27;17.30;;;19.40;99.90;;;;;;4882506;29;20040;-69
2021/09/25 12:34:27;;;;;;;19.23;14.07;;;19.40;99.90;;;;;;4882992;29;20041;-70
2021/09/25 12:36:54;;;;;;;19.77;15.60;;;19.50;99.90;;;;;;4882517;29;20040;-70
2021/09/25 12:39:23;;;;;;;20.38;16.95;;;19.60;99.90;;;;;;4882530;29;20159;-70
2021/09/25 12:41:55;;;;;;;19.65;15.85;;;19.70;99.90;;;;;;4882470;29;20044;-69
2021/09/25 12:44:22;;;;;;;22.05;16.42;;;19.70;90.30;;;;;;4883340;29;20045;-69
2021/09/25 12:46:54;;;;;;;18.48;14.98;;;19.80;35.20;;;;;;4882595;29;20045;-69
2021/09/25 12:49:39;;;;;;;18.23;14.45;;;20.00;1.00;;;;;;4883239;29;20045;-70